Time;durP1;ratioP1;P1;durP2;ratioP2;P2;SDS_P1;SDS_P2;PMS_P1;PMS_P2;Temp;Humidity;BMP_temperature;BMP_pressure;BME280_temperature;BME280_humidity;BME280_pressure;Samples;Min_cycle;Max_cycle;Signal;HPM_P1;HPM_P2
2021/09/18 00:01:55;;;;;;;66.97;46.50;;;13.10;99.90;;;;;;4966973;28;20039;-55
2021/09/18 00:04:20;;;;;;;57.05;39.88;;;13.00;99.90;;;;;;4971527;28;20044;-56
2021/09/18 00:06:46;;;;;;;57.17;40.85;;;13.00;99.90;;;;;;4963213;28;20034;-55
2021/09/18 00:09:11;;;;;;;56.38;41.85;;;13.00;99.90;;;;;;4971391;28;20054;-55
2021/09/18 00:11:37;;;;;;;63.13;46.45;;;13.00;99.90;;;;;;4977678;28;20031;-55
2021/09/18 00:14:03;;;;;;;62.67;43.45;;;13.00;99.90;;;;;;4971764;28;20031;-54
2021/09/18 00:16:29;;;;;;;68.22;43.42;;;13.00;99.90;;;;;;4968063;28;20033;-56
2021/09/18 00:18:54;;;;;;;53.83;40.78;;;13.00;99.90;;;;;;4968960;28;20102;-56
2021/09/18 00:21:20;;;;;;;55.95;39.42;;;13.10;99.90;;;;;;4971621;28;20113;-54
2021/09/18 00:23:46;;;;;;;58.38;39.63;;;13.00;99.90;;;;;;4971119;28;20027;-55
2021/09/18 00:26:11;;;;;;;54.85;37.38;;;13.00;99.90;;;;;;4965387;28;20035;-57
2021/09/18 00:28:38;;;;;;;48.78;37.00;;;13.00;99.90;;;;;;4970855;28;20134;-57
2021/09/18 00:31:04;;;;;;;58.20;37.47;;;13.00;99.90;;;;;;4971727;28;20022;-57
2021/09/18 00:33:29;;;;;;;52.05;37.03;;;13.00;99.90;;;;;;4971785;28;20018;-56
2021/09/18 00:35:55;;;;;;;50.75;36.53;;;12.90;99.90;;;;;;4968735;28;20026;-58
2021/09/18 00:38:20;;;;;;;55.97;38.38;;;12.90;99.90;;;;;;4971277;28;20109;-53
2021/09/18 00:40:46;;;;;;;49.55;36.67;;;12.90;99.90;;;;;;4970066;28;20509;-57
2021/09/18 00:43:12;;;;;;;50.95;37.30;;;12.90;99.90;;;;;;4971169;28;20035;-53
2021/09/18 00:45:38;;;;;;;53.40;37.08;;;12.90;99.90;;;;;;4971177;28;20023;-52
2021/09/18 00:48:04;;;;;;;47.10;37.40;;;12.90;99.90;;;;;;4970519;28;20031;-57
2021/09/18 00:50:30;;;;;;;46.13;33.90;;;12.90;99.90;;;;;;4966831;28;20034;-52
2021/09/18 00:52:56;;;;;;;49.13;34.08;;;12.90;99.90;;;;;;4968607;28;20027;-56
2021/09/18 00:55:22;;;;;;;47.90;33.78;;;12.90;99.90;;;;;;4969488;28;20081;-57
2021/09/18 00:57:47;;;;;;;46.38;34.80;;;12.90;99.90;;;;;;4969993;28;20790;-56
2021/09/18 01:00:14;;;;;;;49.95;36.10;;;12.90;99.90;;;;;;4971226;28;20449;-56
2021/09/18 01:02:40;;;;;;;48.50;33.70;;;12.80;99.90;;;;;;4966798;28;20101;-56
2021/09/18 01:05:07;;;;;;;45.72;34.58;;;12.80;99.90;;;;;;4970870;28;20027;-56
2021/09/18 01:07:34;;;;;;;47.67;35.90;;;12.70;99.90;;;;;;4970664;28;20501;-56
2021/09/18 01:10:00;;;;;;;60.63;39.83;;;12.70;99.90;;;;;;4971098;28;20035;-53
2021/09/18 01:12:26;;;;;;;54.58;41.05;;;12.70;99.90;;;;;;4971074;28;20041;-56
2021/09/18 01:14:52;;;;;;;61.42;42.50;;;12.60;99.90;;;;;;4971166;28;20406;-57
2021/09/18 01:17:17;;;;;;;65.63;44.92;;;12.60;99.90;;;;;;4970546;28;20023;-57
2021/09/18 01:19:43;;;;;;;64.65;42.97;;;12.50;99.90;;;;;;4970815;28;20035;-57
2021/09/18 01:22:09;;;;;;;73.30;47.75;;;12.50;99.90;;;;;;4970736;28;20058;-55
2021/09/18 01:24:37;;;;;;;72.18;49.28;;;12.50;99.90;;;;;;4970486;28;20035;-56
2021/09/18 01:27:03;;;;;;;75.15;49.42;;;12.50;99.90;;;;;;4969764;28;20038;-58
2021/09/18 01:29:29;;;;;;;72.18;49.53;;;12.50;99.90;;;;;;4970304;28;20031;-55
2021/09/18 01:31:54;;;;;;;77.80;51.50;;;12.50;99.90;;;;;;4969944;28;20030;-57
2021/09/18 01:34:22;;;;;;;75.93;50.65;;;12.50;99.90;;;;;;4969923;28;20022;-53
2021/09/18 01:36:50;;;;;;;74.55;48.85;;;12.50;99.90;;;;;;4971144;28;20027;-56
2021/09/18 01:39:16;;;;;;;72.10;46.70;;;12.50;99.90;;;;;;4966991;28;20020;-56
2021/09/18 01:41:44;;;;;;;66.43;45.30;;;12.40;99.90;;;;;;4969848;28;20061;-57
2021/09/18 01:44:15;;;;;;;73.15;46.08;;;12.40;99.90;;;;;;4969862;28;20110;-57
2021/09/18 01:46:41;;;;;;;66.32;46.05;;;12.40;99.90;;;;;;4969854;28;20030;-56
2021/09/18 01:49:14;;;;;;;73.25;45.95;;;12.30;99.90;;;;;;4968234;28;20034;-58
2021/09/18 01:51:42;;;;;;;64.90;43.50;;;12.30;99.90;;;;;;4972650;28;20034;-57
2021/09/18 01:54:08;;;;;;;68.82;45.75;;;12.20;99.90;;;;;;4974273;28;20023;-56
2021/09/18 01:56:33;;;;;;;70.35;46.90;;;12.20;99.90;;;;;;4974083;28;20050;-56
2021/09/18 01:58:59;;;;;;;77.65;49.88;;;12.10;99.90;;;;;;4973936;28;20541;-56
2021/09/18 02:01:24;;;;;;;84.13;52.10;;;12.20;99.90;;;;;;4973393;28;20034;-52
2021/09/18 02:03:50;;;;;;;82.32;51.65;;;12.20;99.90;;;;;;4974244;28;20050;-56
2021/09/18 02:06:16;;;;;;;78.43;51.40;;;12.30;99.90;;;;;;4970044;28;20054;-56
2021/09/18 02:08:42;;;;;;;79.60;50.60;;;12.30;99.90;;;;;;4971112;28;20035;-57
2021/09/18 02:11:08;;;;;;;81.55;50.85;;;12.30;99.90;;;;;;4974290;28;20065;-55
2021/09/18 02:13:33;;;;;;;78.15;50.80;;;12.30;99.90;;;;;;4971362;28;20058;-55
2021/09/18 02:15:59;;;;;;;76.55;48.17;;;12.30;99.90;;;;;;4974059;28;20049;-56
2021/09/18 02:18:24;;;;;;;79.90;48.05;;;12.30;99.90;;;;;;4969453;28;20397;-56
2021/09/18 02:20:50;;;;;;;77.95;48.15;;;12.20;99.90;;;;;;4980596;28;20482;-55
2021/09/18 02:23:16;;;;;;;77.63;48.85;;;12.20;99.90;;;;;;4973554;28;20122;-56
2021/09/18 02:25:42;;;;;;;76.18;48.47;;;12.20;99.90;;;;;;4973731;28;20030;-54
2021/09/18 02:28:08;;;;;;;66.40;45.58;;;12.10;99.90;;;;;;4973246;28;20031;-56
2021/09/18 02:30:37;;;;;;;69.40;44.65;;;12.10;99.90;;;;;;4972407;28;20844;-54
2021/09/18 02:33:03;;;;;;;66.32;44.25;;;12.10;99.90;;;;;;4972606;28;20506;-54
2021/09/18 02:35:29;;;;;;;67.72;45.00;;;12.00;99.90;;;;;;4969530;28;20150;-56
2021/09/18 02:37:56;;;;;;;66.63;46.05;;;12.00;99.90;;;;;;4973282;28;20063;-54
2021/09/18 02:40:23;;;;;;;70.65;44.85;;;12.00;99.90;;;;;;4973169;28;20038;-56
2021/09/18 02:42:52;;;;;;;63.58;44.85;;;12.00;99.90;;;;;;4973725;28;20122;-53
2021/09/18 02:45:19;;;;;;;78.47;50.92;;;12.00;99.90;;;;;;4967588;28;20031;-53
2021/09/18 02:47:45;;;;;;;74.80;50.45;;;12.00;99.90;;;;;;4970185;28;20023;-53
2021/09/18 02:50:13;;;;;;;69.45;45.28;;;12.00;99.90;;;;;;4973002;28;20026;-54
2021/09/18 02:52:38;;;;;;;73.68;48.17;;;12.00;99.90;;;;;;4973129;28;20041;-56
2021/09/18 02:55:06;;;;;;;73.85;48.85;;;12.10;99.90;;;;;;4970280;28;20027;-58
2021/09/18 02:57:32;;;;;;;75.65;48.53;;;12.10;99.90;;;;;;5020530;23;20073;-60
2021/09/18 02:59:57;;;;;;;78.30;48.92;;;12.20;99.90;;;;;;5011387;28;20068;-60
2021/09/18 03:02:23;;;;;;;74.45;48.40;;;12.20;99.90;;;;;;5024110;28;20180;-60
2021/09/18 03:04:49;;;;;;;76.53;49.22;;;12.30;99.90;;;;;;5006421;28;20036;-58
2021/09/18 03:07:14;;;;;;;62.85;42.17;;;12.30;99.90;;;;;;5016864;28;20103;-58
2021/09/18 03:09:40;;;;;;;56.58;39.47;;;12.40;99.90;;;;;;5014503;28;20060;-59
2021/09/18 03:12:05;;;;;;;52.63;38.08;;;12.40;99.90;;;;;;5011981;28;20097;-60
2021/09/18 03:14:31;;;;;;;56.40;37.03;;;12.40;99.90;;;;;;5012582;28;20133;-58
2021/09/18 03:16:56;;;;;;;61.38;39.67;;;12.30;99.90;;;;;;5013173;28;20041;-59
2021/09/18 03:19:22;;;;;;;63.83;43.63;;;12.30;99.90;;;;;;5011529;28;20030;-57
2021/09/18 03:21:48;;;;;;;62.55;43.33;;;12.30;99.90;;;;;;5013002;28;20030;-57
2021/09/18 03:24:13;;;;;;;67.18;44.97;;;12.30;99.90;;;;;;5007707;28;20109;-61
2021/09/18 03:26:43;;;;;;;72.80;48.08;;;12.20;99.90;;;;;;5010768;28;20096;-60
2021/09/18 03:29:10;;;;;;;79.10;49.00;;;12.30;99.90;;;;;;5008925;28;20053;-60
2021/09/18 03:31:36;;;;;;;73.07;48.10;;;12.30;99.90;;;;;;5008264;28;20047;-57
2021/09/18 03:34:01;;;;;;;72.45;47.50;;;12.30;99.90;;;;;;5013253;28;20476;-58
2021/09/18 03:36:27;;;;;;;75.28;49.40;;;12.40;99.90;;;;;;5011692;28;21047;-60
2021/09/18 03:38:52;;;;;;;73.90;48.10;;;12.40;99.90;;;;;;5003276;28;20033;-59
2021/09/18 03:41:18;;;;;;;72.95;48.55;;;12.40;99.90;;;;;;5010168;28;20029;-59
2021/09/18 03:43:44;;;;;;;72.28;48.38;;;12.40;99.90;;;;;;5015984;28;20777;-59
2021/09/18 03:46:09;;;;;;;74.90;49.10;;;12.40;99.90;;;;;;5011651;28;20036;-61
2021/09/18 03:48:35;;;;;;;69.30;47.13;;;12.50;99.90;;;;;;5005807;28;20387;-59
2021/09/18 03:51:01;;;;;;;69.90;46.80;;;12.40;99.90;;;;;;5011884;28;20024;-60
2021/09/18 03:53:27;;;;;;;74.65;46.92;;;12.40;99.90;;;;;;5010731;28;20049;-52
2021/09/18 03:55:53;;;;;;;75.05;46.10;;;12.40;99.90;;;;;;5011710;28;20026;-57
2021/09/18 03:58:18;;;;;;;66.90;45.90;;;12.40;99.90;;;;;;5007727;28;20029;-58
2021/09/18 04:00:44;;;;;;;71.57;46.67;;;12.40;99.90;;;;;;5006493;28;20030;-60
2021/09/18 04:03:10;;;;;;;72.47;48.17;;;12.30;99.90;;;;;;5012107;28;20022;-60
2021/09/18 04:05:38;;;;;;;71.18;45.97;;;12.40;99.90;;;;;;5001475;28;20035;-56
2021/09/18 04:08:08;;;;;;;73.32;46.70;;;12.30;99.90;;;;;;5009182;28;20030;-58
2021/09/18 04:10:35;;;;;;;71.15;47.33;;;12.30;99.90;;;;;;5014925;28;20591;-57
2021/09/18 04:13:01;;;;;;;82.53;50.20;;;12.30;99.90;;;;;;5006335;28;20030;-60
2021/09/18 04:15:27;;;;;;;72.18;46.85;;;12.20;99.90;;;;;;5006543;28;20045;-54
2021/09/18 04:17:52;;;;;;;71.53;46.22;;;12.20;99.90;;;;;;5010170;28;20107;-58
2021/09/18 04:20:18;;;;;;;80.07;47.80;;;12.10;99.90;;;;;;5012988;28;20065;-54
2021/09/18 04:22:43;;;;;;;77.13;47.38;;;12.10;99.90;;;;;;5009824;28;20032;-60
2021/09/18 04:25:10;;;;;;;78.47;48.50;;;12.00;99.90;;;;;;5011305;28;20045;-60
2021/09/18 04:27:36;;;;;;;76.68;49.78;;;12.00;99.90;;;;;;5006712;28;20030;-60
2021/09/18 04:30:04;;;;;;;81.20;50.95;;;11.90;99.90;;;;;;5008044;28;20045;-57
2021/09/18 04:32:29;;;;;;;83.05;50.10;;;11.90;99.90;;;;;;5008750;28;20105;-58
2021/09/18 04:34:55;;;;;;;92.63;53.35;;;11.90;99.90;;;;;;5010010;28;20109;-60
2021/09/18 04:37:20;;;;;;;75.25;46.80;;;11.90;99.90;;;;;;5003102;28;20036;-57
2021/09/18 04:39:46;;;;;;;79.50;48.70;;;11.80;99.90;;;;;;4999395;28;20502;-55
2021/09/18 04:42:11;;;;;;;76.13;49.33;;;11.80;99.90;;;;;;5014150;28;20032;-59
2021/09/18 04:44:37;;;;;;;76.88;45.95;;;11.80;99.90;;;;;;5012936;28;20370;-58
2021/09/18 04:47:03;;;;;;;77.93;47.72;;;11.70;99.90;;;;;;5008736;28;20033;-58
2021/09/18 04:49:28;;;;;;;79.90;50.33;;;11.70;99.90;;;;;;5010489;28;20718;-56
2021/09/18 04:51:54;;;;;;;101.72;55.00;;;11.60;99.90;;;;;;5015368;28;20032;-57
2021/09/18 04:54:19;;;;;;;98.20;57.20;;;11.60;99.90;;;;;;5010643;28;20060;-58
2021/09/18 04:56:45;;;;;;;97.97;52.63;;;11.60;99.90;;;;;;5009904;28;20041;-56
2021/09/18 04:59:10;;;;;;;95.43;53.53;;;11.60;99.90;;;;;;5010123;28;20072;-58
2021/09/18 05:01:36;;;;;;;90.30;51.58;;;11.60;99.90;;;;;;5010202;28;20041;-53
2021/09/18 05:04:01;;;;;;;85.28;50.38;;;11.60;99.90;;;;;;5013268;28;20539;-57
2021/09/18 05:06:27;;;;;;;90.57;51.00;;;11.60;99.90;;;;;;5012542;28;20030;-57
2021/09/18 05:08:52;;;;;;;89.22;50.65;;;11.60;99.90;;;;;;5011392;28;20041;-57
2021/09/18 05:11:18;;;;;;;83.97;47.45;;;11.60;99.90;;;;;;5017009;28;20026;-60
2021/09/18 05:13:43;;;;;;;81.88;50.95;;;11.60;99.90;;;;;;5010500;28;20029;-59
2021/09/18 05:16:09;;;;;;;73.85;46.95;;;11.60;99.90;;;;;;5006343;28;20029;-59
2021/09/18 05:18:35;;;;;;;73.60;48.83;;;11.70;99.90;;;;;;5015503;28;20080;-60
2021/09/18 05:21:00;;;;;;;71.63;45.63;;;11.70;99.90;;;;;;5012852;28;20026;-59
2021/09/18 05:23:26;;;;;;;63.47;43.03;;;11.70;99.90;;;;;;5015696;28;20104;-50
2021/09/18 05:25:52;;;;;;;62.80;41.58;;;11.70;99.90;;;;;;5010897;28;20026;-56
2021/09/18 05:28:17;;;;;;;68.57;43.67;;;11.70;99.90;;;;;;5013675;28;20480;-59
2021/09/18 05:30:43;;;;;;;66.22;44.45;;;11.70;99.90;;;;;;5005710;28;20513;-59
2021/09/18 05:33:08;;;;;;;71.78;45.13;;;11.80;99.90;;;;;;5010313;28;20382;-60
2021/09/18 05:35:34;;;;;;;67.00;43.53;;;11.80;99.90;;;;;;5017726;28;20388;-59
2021/09/18 05:38:00;;;;;;;64.53;44.45;;;11.90;99.90;;;;;;5010563;28;20152;-61
2021/09/18 05:40:26;;;;;;;65.85;42.95;;;12.00;99.90;;;;;;5010033;28;20034;-59
2021/09/18 05:42:53;;;;;;;62.05;42.67;;;12.00;99.90;;;;;;5010206;28;20390;-57
2021/09/18 05:45:19;;;;;;;60.60;40.72;;;12.00;99.90;;;;;;5011011;28;20049;-60
2021/09/18 05:47:44;;;;;;;57.33;38.88;;;12.10;99.90;;;;;;5010001;28;20018;-60
2021/09/18 05:50:10;;;;;;;55.55;39.28;;;12.10;99.90;;;;;;5013304;28;20519;-57
2021/09/18 05:52:36;;;;;;;56.17;39.30;;;12.20;99.90;;;;;;5009535;28;20466;-58
2021/09/18 05:55:02;;;;;;;60.15;39.75;;;12.20;99.90;;;;;;5011247;28;20031;-51
2021/09/18 05:57:28;;;;;;;55.63;39.08;;;12.30;99.90;;;;;;5005771;28;20112;-57
2021/09/18 05:59:53;;;;;;;54.05;38.42;;;12.40;99.90;;;;;;5012369;28;20121;-60
2021/09/18 06:02:19;;;;;;;53.63;36.03;;;12.50;99.90;;;;;;5017475;28;20022;-60
2021/09/18 06:04:44;;;;;;;51.13;37.72;;;12.60;99.90;;;;;;5002529;28;20026;-61
2021/09/18 06:07:10;;;;;;;42.08;32.65;;;12.70;99.90;;;;;;5009764;28;20026;-60
2021/09/18 06:09:35;;;;;;;46.35;34.22;;;12.80;99.90;;;;;;5009479;28;20037;-58
2021/09/18 06:12:01;;;;;;;43.55;32.28;;;13.00;99.90;;;;;;5002626;28;20026;-59
2021/09/18 06:14:26;;;;;;;40.92;30.48;;;13.10;99.90;;;;;;5005334;28;20076;-58
2021/09/18 06:16:52;;;;;;;43.65;31.55;;;13.30;99.90;;;;;;5011077;28;20424;-61
2021/09/18 06:19:18;;;;;;;39.55;30.75;;;13.40;99.90;;;;;;5001675;28;20022;-60
2021/09/18 06:21:45;;;;;;;43.58;29.73;;;13.50;99.90;;;;;;5009789;28;20394;-60
2021/09/18 06:24:11;;;;;;;37.30;28.98;;;13.60;99.90;;;;;;5011662;28;20045;-61
2021/09/18 06:26:38;;;;;;;34.90;29.05;;;13.70;99.90;;;;;;5007806;28;20033;-60
2021/09/18 06:29:05;;;;;;;36.30;26.60;;;13.80;99.90;;;;;;5013402;28;20080;-56
2021/09/18 06:31:31;;;;;;;32.70;26.73;;;13.80;99.90;;;;;;5015627;28;20072;-59
2021/09/18 06:33:56;;;;;;;32.80;25.95;;;14.00;99.90;;;;;;5009432;28;20018;-59
2021/09/18 06:36:22;;;;;;;27.25;23.00;;;14.10;99.90;;;;;;5009350;28;20032;-60
2021/09/18 06:38:47;;;;;;;28.88;22.13;;;14.10;99.90;;;;;;5009922;28;20049;-60
2021/09/18 06:41:13;;;;;;;26.23;19.63;;;14.40;99.90;;;;;;4993482;28;20033;-54
2021/09/18 06:43:38;;;;;;;24.50;18.83;;;14.50;99.90;;;;;;5012258;28;20481;-59
2021/09/18 06:46:04;;;;;;;23.88;19.05;;;14.70;99.90;;;;;;5004750;28;20025;-59
2021/09/18 06:48:30;;;;;;;22.70;16.75;;;15.00;99.90;;;;;;5008630;28;20061;-59
2021/09/18 06:50:55;;;;;;;17.63;15.68;;;15.30;99.90;;;;;;5009150;28;20018;-60
2021/09/18 06:53:21;;;;;;;21.80;16.52;;;15.60;99.90;;;;;;5007227;28;20033;-59
2021/09/18 06:55:47;;;;;;;23.88;14.73;;;15.90;99.90;;;;;;5012096;28;20095;-59
2021/09/18 06:58:12;;;;;;;15.85;14.05;;;16.50;99.90;;;;;;5012752;28;20030;-61
2021/09/18 07:00:38;;;;;;;21.80;15.40;;;16.90;99.90;;;;;;4983749;28;20048;-57
2021/09/18 07:03:04;;;;;;;16.83;13.75;;;17.40;99.90;;;;;;5008439;28;20087;-59
2021/09/18 07:05:29;;;;;;;16.98;14.02;;;17.60;99.90;;;;;;5012953;28;20476;-53
2021/09/18 07:07:55;;;;;;;19.98;14.25;;;17.90;99.90;;;;;;5007403;28;20096;-60
2021/09/18 07:10:21;;;;;;;19.83;14.07;;;18.00;99.90;;;;;;5012454;28;20029;-59
2021/09/18 07:12:46;;;;;;;18.95;14.27;;;18.40;99.90;;;;;;5001713;28;20054;-55
2021/09/18 07:15:12;;;;;;;17.38;14.63;;;18.30;99.90;;;;;;5010097;28;20026;-58
2021/09/18 07:17:38;;;;;;;19.30;16.08;;;18.80;99.90;;;;;;5010712;28;20389;-52
2021/09/18 07:20:05;;;;;;;19.20;14.90;;;18.80;99.90;;;;;;5015815;28;20064;-57
2021/09/18 07:22:30;;;;;;;21.52;16.98;;;19.20;99.90;;;;;;5009074;28;20033;-56
2021/09/18 07:24:56;;;;;;;20.95;17.23;;;19.50;99.90;;;;;;5011479;28;20034;-60
2021/09/18 07:27:22;;;;;;;22.25;17.92;;;19.50;99.90;;;;;;5006792;28;20081;-58
2021/09/18 07:29:51;;;;;;;19.73;15.35;;;19.60;99.90;;;;;;5009333;28;20083;-59
2021/09/18 07:32:19;;;;;;;20.98;16.90;;;20.20;99.90;;;;;;5003681;28;20049;-60
2021/09/18 07:34:45;;;;;;;24.38;17.17;;;20.70;99.90;;;;;;5010326;28;20446;-56
2021/09/18 07:37:11;;;;;;;17.50;15.57;;;21.10;99.90;;;;;;5010009;28;20058;-58
2021/09/18 07:39:37;;;;;;;20.73;15.52;;;20.90;99.90;;;;;;5011083;28;20083;-59
2021/09/18 07:42:03;;;;;;;18.00;14.75;;;21.10;99.90;;;;;;5008804;28;20374;-59
2021/09/18 07:44:29;;;;;;;18.35;14.80;;;21.30;99.90;;;;;;5010278;28;20034;-60
2021/09/18 07:46:55;;;;;;;23.10;15.05;;;21.50;99.90;;;;;;5001772;28;20029;-58
2021/09/18 07:49:21;;;;;;;19.17;16.45;;;21.20;99.90;;;;;;5009647;28;20030;-58
2021/09/18 07:51:47;;;;;;;22.77;16.33;;;21.10;99.90;;;;;;5005158;28;20117;-56
2021/09/18 07:54:12;;;;;;;21.83;16.92;;;21.20;99.90;;;;;;5011155;28;20018;-56
2021/09/18 07:56:38;;;;;;;16.42;14.32;;;21.00;99.90;;;;;;5010284;28;20042;-53
2021/09/18 07:59:04;;;;;;;21.13;16.77;;;21.20;99.90;;;;;;5009726;28;20037;-56
2021/09/18 08:01:30;;;;;;;18.60;16.60;;;21.60;99.90;;;;;;4991914;28;20512;-51
2021/09/18 08:04:03;;;;;;;23.40;16.83;;;21.70;99.90;;;;;;5009578;28;20060;-58
2021/09/18 08:06:34;;;;;;;23.80;15.77;;;21.80;99.80;;;;;;4997927;28;20018;-59
2021/09/18 08:09:02;;;;;;;19.13;15.52;;;22.00;99.90;;;;;;5010624;28;20570;-55
2021/09/18 08:11:28;;;;;;;21.08;16.55;;;22.20;99.30;;;;;;5005560;28;20113;-53
2021/09/18 08:13:55;;;;;;;18.38;16.13;;;22.20;99.30;;;;;;5009428;28;20145;-58
2021/09/18 08:16:21;;;;;;;18.23;15.85;;;21.80;99.20;;;;;;5010406;28;20022;-59
2021/09/18 08:18:47;;;;;;;15.30;13.68;;;21.80;99.30;;;;;;5002507;28;20030;-55
2021/09/18 08:21:13;;;;;;;18.75;13.90;;;21.80;99.80;;;;;;5010250;28;20116;-57
2021/09/18 08:23:40;;;;;;;19.20;15.88;;;22.20;99.80;;;;;;5002676;28;20029;-60
2021/09/18 08:26:08;;;;;;;14.65;13.02;;;22.40;98.60;;;;;;5010428;28;20022;-56
2021/09/18 08:28:33;;;;;;;16.02;13.05;;;22.60;98.90;;;;;;4988786;28;20034;-60
2021/09/18 08:30:59;;;;;;;14.35;12.38;;;23.50;97.30;;;;;;5002950;28;20762;-59
2021/09/18 08:33:24;;;;;;;20.60;15.93;;;24.00;96.80;;;;;;5002585;28;20021;-60
2021/09/18 08:35:50;;;;;;;21.95;13.48;;;23.50;96.40;;;;;;5001844;28;20034;-54
2021/09/18 08:38:17;;;;;;;15.55;13.68;;;23.30;97.40;;;;;;5002075;28;20022;-54
2021/09/18 08:40:44;;;;;;;17.83;15.50;;;23.80;96.90;;;;;;5009566;28;20382;-59
2021/09/18 08:43:11;;;;;;;19.38;15.43;;;24.10;96.40;;;;;;5004783;28;20050;-58
2021/09/18 08:45:36;;;;;;;20.17;17.05;;;23.50;96.50;;;;;;5010206;28;20026;-53
2021/09/18 08:48:06;;;;;;;17.48;14.23;;;23.20;96.90;;;;;;5002762;28;20096;-58
2021/09/18 08:50:33;;;;;;;26.40;18.27;;;23.50;97.30;;;;;;5010205;28;20430;-60
2021/09/18 08:52:59;;;;;;;27.25;20.17;;;23.80;96.80;;;;;;5001848;28;20408;-59
2021/09/18 08:55:25;;;;;;;24.67;20.20;;;24.10;96.10;;;;;;5010359;28;20028;-59
2021/09/18 08:57:51;;;;;;;21.15;18.55;;;23.50;96.30;;;;;;5001368;28;20119;-56
2021/09/18 09:00:31;;;;;;;21.88;17.67;;;23.60;96.70;;;;;;5002451;28;20105;-60
2021/09/18 09:02:59;;;;;;;22.23;17.75;;;23.50;97.10;;;;;;5001239;28;20048;-59
2021/09/18 09:05:30;;;;;;;24.95;19.20;;;23.60;97.10;;;;;;5003890;28;20386;-59
2021/09/18 09:08:13;;;;;;;21.95;18.92;;;24.00;96.60;;;;;;5005695;28;20079;-60
2021/09/18 09:10:43;;;;;;;20.77;17.75;;;23.70;96.50;;;;;;4998436;28;20014;-58
2021/09/18 09:13:20;;;;;;;23.15;20.38;;;23.80;97.30;;;;;;5009715;28;20588;-60
2021/09/18 09:15:48;;;;;;;21.25;19.00;;;23.70;96.40;;;;;;5011120;28;20482;-60
2021/09/18 09:18:26;;;;;;;26.05;18.67;;;24.00;97.40;;;;;;5002919;28;20096;-60
2021/09/18 09:21:11;;;;;;;19.95;17.58;;;24.70;96.40;;;;;;5008283;28;20105;-60
2021/09/18 09:23:37;;;;;;;25.67;20.75;;;24.20;96.30;;;;;;5009274;28;20401;-60
2021/09/18 09:26:03;;;;;;;35.53;27.42;;;24.40;96.30;;;;;;5007880;28;20037;-59
2021/09/18 09:28:34;;;;;;;40.80;28.63;;;24.80;95.40;;;;;;5009029;28;20033;-60
2021/09/18 09:31:26;;;;;;;34.83;28.13;;;25.40;94.30;;;;;;5006943;28;20037;-58
2021/09/18 09:34:14;;;;;;;43.35;30.25;;;24.80;95.50;;;;;;5009144;28;20022;-59
2021/09/18 09:36:48;;;;;;;42.00;28.70;;;24.90;95.30;;;;;;5003462;28;20022;-59
2021/09/18 09:39:18;;;;;;;39.42;29.38;;;25.00;95.00;;;;;;5009500;28;20018;-60
2021/09/18 09:41:52;;;;;;;46.15;28.10;;;24.80;94.90;;;;;;5002699;28;20030;-53
2021/09/18 09:44:21;;;;;;;42.30;30.05;;;24.50;95.30;;;;;;5009918;28;20026;-60
2021/09/18 09:47:10;;;;;;;39.70;27.85;;;24.90;94.80;;;;;;5001844;28;20255;-58
2021/09/18 09:49:45;;;;;;;35.05;27.83;;;25.20;94.90;;;;;;5009573;28;20018;-59
2021/09/18 09:52:21;;;;;;;39.53;28.27;;;25.70;94.10;;;;;;4999336;28;20029;-58
2021/09/18 09:54:47;;;;;;;38.38;28.98;;;25.30;94.20;;;;;;5009576;28;20029;-59
2021/09/18 09:57:14;;;;;;;40.97;31.10;;;25.00;94.60;;;;;;5000964;28;20034;-59
2021/09/18 09:59:41;;;;;;;35.95;27.92;;;25.00;94.80;;;;;;5008848;28;20026;-58
2021/09/18 10:02:11;;;;;;;39.30;26.55;;;25.20;95.00;;;;;;4992345;28;20061;-52
2021/09/18 10:04:38;;;;;;;46.05;31.08;;;25.20;94.30;;;;;;4991001;28;20018;-53
2021/09/18 10:07:04;;;;;;;38.45;27.98;;;25.70;93.10;;;;;;4989494;28;20022;-58
2021/09/18 10:09:30;;;;;;;41.88;28.38;;;25.30;94.00;;;;;;4974753;28;20026;-56
2021/09/18 10:11:57;;;;;;;43.30;30.70;;;25.60;94.20;;;;;;4991473;28;20093;-50
2021/09/18 10:14:26;;;;;;;39.10;27.13;;;25.70;92.70;;;;;;4995046;28;20424;-51
2021/09/18 10:16:56;;;;;;;42.70;29.17;;;25.80;93.80;;;;;;4976704;28;20033;-50
2021/09/18 10:24:53;;;;;;;38.28;28.83;;;25.10;93.90;;;;;;4995078;28;20025;-59
2021/09/18 10:27:22;;;;;;;45.38;29.88;;;24.90;94.10;;;;;;5010084;28;20018;-59
2021/09/18 10:29:49;;;;;;;37.55;26.45;;;24.80;93.50;;;;;;4985734;28;20502;-57
2021/09/18 10:32:16;;;;;;;36.70;27.13;;;25.10;94.20;;;;;;5008822;28;20041;-57
2021/09/18 10:34:42;;;;;;;36.92;23.30;;;25.30;93.00;;;;;;5007442;28;20397;-55
2021/09/18 10:37:31;;;;;;;30.65;20.73;;;24.90;93.60;;;;;;5010784;28;20029;-58
2021/09/18 10:40:08;;;;;;;33.38;22.77;;;24.50;93.40;;;;;;5007877;28;20026;-55
2021/09/18 10:42:37;;;;;;;32.78;22.00;;;24.40;92.40;;;;;;5010852;28;20022;-58
2021/09/18 10:45:04;;;;;;;29.40;21.80;;;24.40;92.60;;;;;;5008435;28;20057;-59
2021/09/18 10:47:45;;;;;;;28.58;20.23;;;24.20;93.50;;;;;;5011090;28;20223;-56
2021/09/18 10:50:24;;;;;;;29.88;18.23;;;24.00;94.50;;;;;;5007096;28;20036;-56
2021/09/18 10:53:02;;;;;;;28.88;19.05;;;23.90;94.60;;;;;;5007072;28;20022;-58
2021/09/18 10:55:28;;;;;;;29.50;18.88;;;23.50;94.10;;;;;;5008801;28;20037;-54
2021/09/18 10:58:04;;;;;;;26.23;18.67;;;23.40;94.60;;;;;;4991241;28;20030;-52
2021/09/18 11:00:29;;;;;;;31.30;21.58;;;23.10;94.70;;;;;;5001398;28;20037;-57
2021/09/18 11:02:56;;;;;;;29.17;19.02;;;23.20;94.50;;;;;;4994682;28;20050;-59
2021/09/18 11:05:21;;;;;;;27.55;17.75;;;23.30;95.30;;;;;;5004925;28;20101;-59
2021/09/18 11:07:49;;;;;;;23.80;15.75;;;23.30;94.30;;;;;;5009220;28;20255;-56
2021/09/18 11:10:35;;;;;;;19.88;11.90;;;23.30;93.60;;;;;;4994081;28;20026;-55
2021/09/18 11:13:06;;;;;;;18.70;13.27;;;23.40;92.40;;;;;;5011336;28;20053;-58
2021/09/18 11:15:46;;;;;;;17.30;12.90;;;23.40;93.40;;;;;;4999790;28;20022;-53
2021/09/18 11:18:37;;;;;;;17.52;11.45;;;23.60;92.90;;;;;;5008901;28;20018;-60
2021/09/18 11:21:18;;;;;;;21.83;13.05;;;23.70;93.70;;;;;;5005076;28;20079;-52
2021/09/18 11:23:56;;;;;;;21.70;13.63;;;23.60;93.30;;;;;;5001197;28;20048;-56
2021/09/18 11:26:38;;;;;;;19.30;13.73;;;23.70;93.80;;;;;;5010456;28;20117;-58
2021/09/18 11:29:34;;;;;;;23.30;14.23;;;23.60;92.80;;;;;;5010963;28;20038;-55
2021/09/18 11:32:19;;;;;;;17.52;12.18;;;23.60;93.10;;;;;;5010337;28;20025;-57
2021/09/18 11:34:46;;;;;;;16.92;12.30;;;23.70;93.10;;;;;;5008850;28;20026;-57
2021/09/18 11:37:30;;;;;;;18.70;12.60;;;23.50;92.50;;;;;;5006556;28;20493;-55
2021/09/18 11:40:00;;;;;;;15.40;11.05;;;23.60;93.00;;;;;;5001745;28;20092;-59
2021/09/18 11:42:31;;;;;;;17.98;11.95;;;23.40;94.60;;;;;;5004949;28;20025;-54
2021/09/18 11:45:04;;;;;;;14.40;9.40;;;23.60;93.30;;;;;;5010367;28;20029;-59
2021/09/18 11:47:33;;;;;;;14.68;11.00;;;23.60;94.00;;;;;;5006565;28;20093;-53
2021/09/18 11:49:59;;;;;;;13.48;10.27;;;23.60;92.90;;;;;;5005644;28;20784;-58
2021/09/18 11:52:36;;;;;;;15.40;10.77;;;23.40;93.40;;;;;;5010874;28;20029;-56
2021/09/18 11:55:03;;;;;;;20.58;10.68;;;23.40;93.30;;;;;;5011324;28;20018;-57
2021/09/18 11:57:29;;;;;;;16.27;11.40;;;23.50;94.40;;;;;;5002239;28;20117;-54
2021/09/18 11:59:55;;;;;;;17.55;12.70;;;23.70;94.00;;;;;;5010965;28;20096;-53
2021/09/18 12:02:31;;;;;;;16.55;11.95;;;23.90;94.00;;;;;;4981739;28;20512;-58
2021/09/18 12:04:56;;;;;;;17.08;12.38;;;23.90;94.20;;;;;;5006773;28;20405;-55
2021/09/18 12:07:22;;;;;;;21.00;13.10;;;24.10;94.40;;;;;;5006983;28;20049;-58
2021/09/18 12:09:48;;;;;;;15.80;12.18;;;24.30;93.50;;;;;;5006547;28;20029;-56
2021/09/18 12:12:14;;;;;;;16.73;12.38;;;24.40;93.50;;;;;;5010471;28;20018;-58
2021/09/18 12:14:40;;;;;;;16.70;12.60;;;24.60;92.80;;;;;;5010624;28;20148;-58
2021/09/18 12:17:13;;;;;;;18.17;11.90;;;24.70;92.30;;;;;;5002370;28;20609;-53
2021/09/18 12:19:40;;;;;;;16.27;11.25;;;24.60;93.50;;;;;;5004694;28;20045;-57
2021/09/18 12:22:06;;;;;;;14.27;10.70;;;24.50;93.00;;;;;;5009450;28;20026;-50
2021/09/18 12:24:35;;;;;;;21.17;11.82;;;24.70;92.90;;;;;;4993416;28;20397;-58
2021/09/18 12:27:00;;;;;;;15.10;10.27;;;24.90;91.80;;;;;;5010608;28;20505;-58
2021/09/18 12:29:26;;;;;;;13.40;9.15;;;24.70;91.10;;;;;;5010373;28;20030;-59
2021/09/18 12:32:02;;;;;;;13.52;9.30;;;24.70;90.90;;;;;;5008462;28;20425;-60
2021/09/18 12:34:33;;;;;;;11.20;8.80;;;24.60;91.30;;;;;;5005402;28;20580;-60
2021/09/18 12:37:07;;;;;;;12.40;9.63;;;24.10;91.90;;;;;;5006894;28;20037;-59